createdAt,value
2022-12-20T00:01:26.534Z,30.05
2022-12-20T00:03:56.295Z,31.92
2022-12-20T00:06:24.818Z,33.90
2022-12-20T00:09:00.744Z,31.63
2022-12-20T00:11:30.164Z,32.55
2022-12-20T00:13:58.421Z,34.05
2022-12-20T00:16:28.744Z,28.92
2022-12-20T00:18:59.796Z,31.42
2022-12-20T00:21:28.129Z,30.58
2022-12-20T00:23:56.004Z,32.88
2022-12-20T00:26:27.983Z,32.40
2022-12-20T00:28:55.665Z,32.85
2022-12-20T00:31:26.526Z,39.33
2022-12-20T00:33:55.718Z,29.45
2022-12-20T00:36:25.105Z,31.83
2022-12-20T00:38:55.863Z,31.58
2022-12-20T00:41:26.606Z,32.78
2022-12-20T00:43:54.090Z,27.70
2022-12-20T00:46:24.751Z,32.45
2022-12-20T00:48:54.514Z,32.58
2022-12-20T00:51:25.880Z,33.08
2022-12-20T00:53:54.126Z,28.48
2022-12-20T00:56:21.570Z,33.78
2022-12-20T00:58:49.051Z,31.05
2022-12-20T01:01:27.538Z,29.75
2022-12-20T01:03:55.137Z,31.25
2022-12-20T01:06:23.883Z,30.23
2022-12-20T01:08:51.365Z,32.72
2022-12-20T01:11:25.724Z,26.27
2022-12-20T01:13:56.323Z,31.67
2022-12-20T01:16:31.477Z,30.92
2022-12-20T01:18:58.457Z,28.83
2022-12-20T01:21:27.504Z,32.58
2022-12-20T01:23:55.862Z,30.90
2022-12-20T01:26:26.956Z,30.45
2022-12-20T01:28:57.484Z,32.08
2022-12-20T01:31:25.027Z,27.40
2022-12-20T01:33:52.849Z,29.45
2022-12-20T01:36:26.689Z,28.85
2022-12-20T01:39:03.956Z,27.92
2022-12-20T01:41:33.016Z,29.92
2022-12-20T01:44:27.475Z,25.58
2022-12-20T01:46:55.360Z,27.55
2022-12-20T01:49:32.785Z,26.77
2022-12-20T01:52:17.868Z,27.88
2022-12-20T01:54:58.526Z,29.35
2022-12-20T01:57:36.004Z,29.10
2022-12-20T02:00:05.857Z,27.80
2022-12-20T02:02:42.220Z,28.85
2022-12-20T02:05:10.257Z,26.75
2022-12-20T02:07:39.066Z,27.13
2022-12-20T02:10:07.979Z,29.98
2022-12-20T02:12:45.289Z,25.92
2022-12-20T02:15:32.837Z,27.33
2022-12-20T02:18:23.064Z,38.58
2022-12-20T02:21:16.415Z,26.52
2022-12-20T02:24:16.473Z,25.70
2022-12-20T02:27:21.586Z,27.73
2022-12-20T02:30:18.728Z,25.08
2022-12-20T02:33:04.689Z,28.20
2022-12-20T02:35:35.797Z,24.65
2022-12-20T02:38:34.449Z,25.30
2022-12-20T02:41:12.319Z,26.83
2022-12-20T02:44:01.879Z,25.33
2022-12-20T02:46:29.791Z,26.23
2022-12-20T02:49:01.953Z,26.08
2022-12-20T02:51:32.860Z,29.30
2022-12-20T02:54:00.624Z,26.50
2022-12-20T02:56:38.197Z,24.42
2022-12-20T02:59:15.300Z,27.88
2022-12-20T03:01:50.543Z,24.92
2022-12-20T03:04:20.615Z,24.92
2022-12-20T03:07:05.797Z,24.35
2022-12-20T03:09:38.113Z,25.50
2022-12-20T03:12:07.987Z,23.13
2022-12-20T03:14:38.107Z,25.58
2022-12-20T03:17:08.684Z,24.33
2022-12-20T03:19:38.796Z,27.30
2022-12-20T03:22:06.595Z,27.02
2022-12-20T03:24:34.056Z,26.10
2022-12-20T03:27:01.943Z,26.05
2022-12-20T03:29:29.205Z,26.38
2022-12-20T03:31:56.264Z,23.80
2022-12-20T03:34:23.713Z,25.27
2022-12-20T03:36:50.743Z,24.45
2022-12-20T03:39:17.937Z,24.55
2022-12-20T03:41:45.032Z,24.80
2022-12-20T03:44:16.402Z,23.52
2022-12-20T03:46:43.613Z,23.30
2022-12-20T03:49:10.919Z,24.10
2022-12-20T03:51:44.957Z,22.45
2022-12-20T03:54:12.363Z,24.65
2022-12-20T03:56:55.855Z,24.85
2022-12-20T03:59:22.954Z,26.30
2022-12-20T04:01:50.217Z,22.88
2022-12-20T04:04:17.367Z,24.08
2022-12-20T04:06:44.948Z,19.80
2022-12-20T04:09:12.195Z,23.95
2022-12-20T04:11:45.477Z,22.02
2022-12-20T04:14:15.096Z,24.25
2022-12-20T04:16:43.635Z,19.33
2022-12-20T04:19:11.988Z,22.02
2022-12-20T04:21:45.568Z,24.88
2022-12-20T04:24:13.665Z,24.48
2022-12-20T04:26:56.029Z,22.80
2022-12-20T04:29:23.425Z,21.67
2022-12-20T04:31:51.010Z,22.25
2022-12-20T04:34:19.176Z,21.55
2022-12-20T04:36:46.462Z,20.85
2022-12-20T04:39:20.069Z,24.88
2022-12-20T04:42:05.458Z,24.58
2022-12-20T04:44:33.438Z,19.52
2022-12-20T04:47:00.641Z,23.83
2022-12-20T04:49:28.951Z,22.45
2022-12-20T04:52:16.018Z,20.83
2022-12-20T04:54:43.295Z,22.23
2022-12-20T04:57:16.581Z,24.25
2022-12-20T04:59:44.176Z,24.27
2022-12-20T05:02:13.532Z,22.30
2022-12-20T05:04:51.579Z,21.58
2022-12-20T05:07:18.627Z,26.17
2022-12-20T05:09:51.282Z,22.15
2022-12-20T05:12:18.723Z,20.50
2022-12-20T05:14:45.756Z,21.55
2022-12-20T05:17:15.799Z,21.38
2022-12-20T05:19:42.801Z,22.52
2022-12-20T05:22:43.931Z,24.45
2022-12-20T05:25:32.246Z,20.85
2022-12-20T05:28:04.052Z,20.80
2022-12-20T05:30:34.712Z,21.33
2022-12-20T05:33:01.952Z,19.75
2022-12-20T05:35:30.291Z,24.42
2022-12-20T05:38:04.080Z,25.58
2022-12-20T05:40:32.001Z,22.65
2022-12-20T05:42:59.789Z,21.60
2022-12-20T05:45:35.897Z,25.55
2022-12-20T05:48:08.647Z,28.25
2022-12-20T05:50:39.419Z,24.08
2022-12-20T05:53:24.126Z,19.77
2022-12-20T05:55:54.535Z,23.38
2022-12-20T05:58:26.259Z,23.10
2022-12-20T06:01:04.849Z,24.90
2022-12-20T06:03:38.338Z,21.98
2022-12-20T06:06:14.651Z,20.70
2022-12-20T06:08:44.914Z,22.92
2022-12-20T06:11:18.015Z,28.73
2022-12-20T06:13:50.432Z,24.33
2022-12-20T06:16:20.799Z,20.52
2022-12-20T06:18:47.968Z,21.77
2022-12-20T06:21:16.501Z,22.13
2022-12-20T06:23:44.718Z,22.38
2022-12-20T06:26:13.733Z,24.92
2022-12-20T06:28:54.598Z,24.77
2022-12-20T06:31:25.546Z,21.70
2022-12-20T06:33:54.852Z,22.77
2022-12-20T06:36:23.959Z,22.77
2022-12-20T06:38:51.940Z,21.73
2022-12-20T06:41:19.441Z,20.00
2022-12-20T06:43:47.131Z,20.92
2022-12-20T06:46:14.536Z,20.75
2022-12-20T06:48:41.601Z,26.67
2022-12-20T06:51:11.232Z,25.83
2022-12-20T06:53:38.604Z,20.17
2022-12-20T06:56:06.487Z,20.95
2022-12-20T06:58:33.383Z,25.23
2022-12-20T07:01:00.868Z,21.30
2022-12-20T07:03:28.563Z,24.45
2022-12-20T07:05:56.177Z,21.42
2022-12-20T07:08:24.563Z,21.67
2022-12-20T07:10:52.767Z,22.30
2022-12-20T07:13:20.338Z,21.60
2022-12-20T07:15:47.526Z,20.67
2022-12-20T07:18:14.471Z,21.25
2022-12-20T07:20:41.887Z,22.17
2022-12-20T07:23:08.812Z,21.75
2022-12-20T07:25:36.137Z,24.15
2022-12-20T07:28:04.183Z,22.40
2022-12-20T07:30:31.244Z,21.45
2022-12-20T07:32:58.947Z,24.42
2022-12-20T07:35:26.656Z,24.05
2022-12-20T07:37:53.821Z,22.10
2022-12-20T07:40:20.790Z,25.25
2022-12-20T07:42:49.036Z,24.33
2022-12-20T07:45:16.420Z,24.50
2022-12-20T07:47:43.993Z,24.33
2022-12-20T07:50:12.047Z,22.10
2022-12-20T07:52:41.435Z,27.02
2022-12-20T07:55:10.555Z,21.88
2022-12-20T07:57:58.904Z,25.75
2022-12-20T08:00:25.929Z,25.55
2022-12-20T08:03:32.083Z,26.30
2022-12-20T08:06:03.985Z,25.65
2022-12-20T08:08:33.979Z,21.45
2022-12-20T08:11:04.183Z,26.17
2022-12-20T08:13:32.962Z,26.00
2022-12-20T08:16:00.874Z,21.92
2022-12-20T08:18:27.842Z,28.73
2022-12-20T08:20:54.936Z,33.20
2022-12-20T08:23:21.913Z,28.80
2022-12-20T08:25:49.135Z,27.20
2022-12-20T08:28:16.460Z,26.75
2022-12-20T08:30:43.584Z,22.42
2022-12-20T08:33:11.618Z,24.67
2022-12-20T08:35:38.567Z,26.73
2022-12-20T08:38:05.687Z,26.25
2022-12-20T08:40:32.715Z,26.70
2022-12-20T08:43:03.773Z,27.67
2022-12-20T08:45:35.255Z,23.93
2022-12-20T08:48:02.306Z,22.15
2022-12-20T08:50:29.563Z,24.55
2022-12-20T08:52:56.496Z,26.27
2022-12-20T08:55:29.142Z,27.05
2022-12-20T08:57:56.934Z,31.58
2022-12-20T09:00:24.091Z,25.63
2022-12-20T09:02:52.042Z,26.85
2022-12-20T09:05:19.420Z,27.83
2022-12-20T09:07:46.556Z,28.80
2022-12-20T09:10:14.938Z,26.02
2022-12-20T09:12:41.950Z,24.52
2022-12-20T09:15:10.156Z,25.77
2022-12-20T09:17:37.246Z,21.98
2022-12-20T09:20:05.344Z,25.52
2022-12-20T09:22:32.224Z,29.13
2022-12-20T09:24:59.910Z,27.30
2022-12-20T09:27:26.791Z,28.80
2022-12-20T09:29:53.786Z,27.98
2022-12-20T09:32:20.793Z,26.15
2022-12-20T09:34:48.351Z,25.75
2022-12-20T09:37:15.325Z,25.48
2022-12-20T09:39:42.345Z,25.65
2022-12-20T09:42:10.040Z,29.23
2022-12-20T09:44:41.360Z,28.08
2022-12-20T09:47:17.165Z,26.35
2022-12-20T09:49:50.015Z,23.08
2022-12-20T09:52:41.675Z,25.50
2022-12-20T09:55:19.893Z,25.08
2022-12-20T09:57:56.055Z,25.23
2022-12-20T10:00:23.631Z,26.08
2022-12-20T10:05:56.611Z,27.55
2022-12-20T10:08:59.804Z,25.27
2022-12-20T10:12:12.920Z,23.63
2022-12-20T10:14:57.966Z,28.73
2022-12-20T10:17:50.022Z,25.63
2022-12-20T10:20:32.819Z,21.00
2022-12-20T10:23:15.309Z,22.25
2022-12-20T10:25:43.470Z,23.63
2022-12-20T10:28:16.800Z,23.45
2022-12-20T10:30:44.157Z,23.73
2022-12-20T10:33:22.454Z,22.70
2022-12-20T10:35:50.702Z,19.50
2022-12-20T10:38:18.445Z,21.60
2022-12-20T10:41:19.984Z,18.60
2022-12-20T10:43:50.101Z,19.23
2022-12-20T10:46:17.464Z,19.02
2022-12-20T10:48:48.121Z,17.25
2022-12-20T10:51:22.399Z,20.38
2022-12-20T10:54:04.166Z,20.98
2022-12-20T10:56:38.761Z,18.48
2022-12-20T10:59:17.963Z,20.38
2022-12-20T11:01:47.593Z,19.45
2022-12-20T11:04:39.478Z,19.48
2022-12-20T11:07:26.946Z,17.98
2022-12-20T11:10:08.918Z,17.23
2022-12-20T11:12:36.117Z,18.80
2022-12-20T11:15:20.543Z,19.05
2022-12-20T11:18:32.020Z,17.83
2022-12-20T11:21:28.961Z,16.77
2022-12-20T11:24:49.935Z,16.85
2022-12-20T11:27:38.214Z,15.80
2022-12-20T11:30:14.472Z,16.52
2022-12-20T11:33:05.070Z,16.40
2022-12-20T11:35:53.496Z,15.27
2022-12-20T11:38:48.516Z,15.48
2022-12-20T11:41:57.998Z,15.77
2022-12-20T11:45:14.723Z,15.52
2022-12-20T11:47:44.427Z,16.02
2022-12-20T11:50:31.618Z,14.65
2022-12-20T11:53:41.347Z,15.90
2022-12-20T11:56:22.156Z,15.65
2022-12-20T11:59:15.072Z,15.15
2022-12-20T12:02:09.427Z,16.45
2022-12-20T12:04:57.427Z,16.02
2022-12-20T12:07:30.881Z,14.65
2022-12-20T12:10:14.107Z,19.67
2022-12-20T12:12:48.748Z,17.08
2022-12-20T12:15:16.892Z,16.65
2022-12-20T12:18:03.891Z,16.83
2022-12-20T12:21:08.310Z,14.40
2022-12-20T12:24:02.219Z,17.48
2022-12-20T12:26:39.447Z,16.38
2022-12-20T12:29:17.889Z,16.48
2022-12-20T12:31:58.342Z,14.38
2022-12-20T12:35:03.714Z,18.65
2022-12-20T12:38:02.682Z,17.55
2022-12-20T12:40:38.115Z,17.17
2022-12-20T12:43:36.490Z,17.38
2022-12-20T12:46:30.573Z,17.77
2022-12-20T12:48:59.061Z,15.57
2022-12-20T12:51:33.446Z,16.35
2022-12-20T12:54:29.389Z,16.25
2022-12-20T12:57:11.970Z,17.83
2022-12-20T12:59:38.874Z,13.85
2022-12-20T13:02:15.262Z,13.95
2022-12-20T13:05:25.666Z,18.10
2022-12-20T13:07:53.534Z,15.18
2022-12-20T13:10:40.629Z,17.15
2022-12-20T13:13:22.858Z,15.75
2022-12-20T13:15:52.612Z,15.73
2022-12-20T13:18:25.505Z,16.42
2022-12-20T13:21:29.537Z,16.40
2022-12-20T13:24:37.959Z,15.93
2022-12-20T13:27:24.104Z,19.33
2022-12-20T13:30:12.528Z,17.67
2022-12-20T13:32:48.816Z,17.23
2022-12-20T13:38:05.740Z,17.05
2022-12-20T13:40:47.327Z,20.48
2022-12-20T13:43:30.363Z,18.13
2022-12-20T13:46:14.889Z,21.20
2022-12-20T13:48:53.208Z,20.45
2022-12-20T13:51:27.785Z,17.08
2022-12-20T13:54:01.288Z,18.77
2022-12-20T13:56:28.577Z,20.73
2022-12-20T13:58:59.063Z,19.05
2022-12-20T14:01:27.095Z,16.60
2022-12-20T14:03:54.479Z,19.65
2022-12-20T14:06:27.100Z,18.48
2022-12-20T14:08:54.427Z,18.85
2022-12-20T14:11:28.236Z,20.58
2022-12-20T14:14:01.207Z,20.40
2022-12-20T14:16:32.678Z,18.65
2022-12-20T14:19:13.886Z,22.27
2022-12-20T14:21:45.071Z,18.17
2022-12-20T14:24:20.077Z,20.75
2022-12-20T14:26:51.904Z,20.27
2022-12-20T14:29:27.357Z,19.27
2022-12-20T14:31:54.312Z,20.02
2022-12-20T14:34:39.848Z,23.27
2022-12-20T14:37:27.184Z,20.55
2022-12-20T14:39:58.190Z,17.30
2022-12-20T14:42:34.529Z,19.65
2022-12-20T14:45:10.831Z,20.60
2022-12-20T14:47:42.722Z,20.92
2022-12-20T14:50:24.871Z,22.40
2022-12-20T14:52:51.920Z,21.67
2022-12-20T14:55:28.964Z,22.30
2022-12-20T14:57:57.878Z,21.05
2022-12-20T15:00:29.848Z,20.13
2022-12-20T15:02:57.268Z,21.30
2022-12-20T15:05:36.725Z,21.55
2022-12-20T15:08:34.639Z,21.85
2022-12-20T15:13:54.813Z,22.45
2022-12-20T15:16:30.244Z,21.48
2022-12-20T15:19:02.120Z,20.85
2022-12-20T15:21:37.255Z,26.77
2022-12-20T15:24:10.910Z,23.07
2022-12-20T15:26:38.535Z,24.25
2022-12-20T15:29:06.982Z,25.75
2022-12-20T15:31:36.456Z,21.08
2022-12-20T15:34:32.669Z,22.65
2022-12-20T15:37:00.377Z,24.33
2022-12-20T15:39:28.603Z,26.67
2022-12-20T15:41:58.922Z,29.33
2022-12-20T15:44:29.541Z,27.08
2022-12-20T15:46:57.308Z,22.90
2022-12-20T15:49:33.416Z,25.08
2022-12-20T15:52:00.613Z,23.55
2022-12-20T15:54:37.074Z,23.67
2022-12-20T15:57:10.315Z,30.50
2022-12-20T16:02:27.411Z,29.77
2022-12-20T16:04:56.628Z,28.85
2022-12-20T16:07:24.047Z,27.58
2022-12-20T16:09:51.391Z,25.88
2022-12-20T16:12:29.540Z,22.98
2022-12-20T16:14:57.285Z,26.38
2022-12-20T16:17:24.788Z,26.45
2022-12-20T16:19:51.737Z,27.98
2022-12-20T16:22:22.462Z,30.42
2022-12-20T16:24:50.186Z,25.73
2022-12-20T16:27:17.487Z,26.92
2022-12-20T16:29:45.377Z,32.00
2022-12-20T16:32:18.575Z,28.38
2022-12-20T16:34:46.235Z,29.73
2022-12-20T16:37:13.896Z,30.30
2022-12-20T16:39:42.651Z,31.85
2022-12-20T16:42:21.988Z,30.67
2022-12-20T16:44:53.551Z,28.52
2022-12-20T16:47:20.937Z,29.33
2022-12-20T16:49:52.825Z,33.30
2022-12-20T16:52:22.539Z,30.65
2022-12-20T16:54:50.537Z,32.33
2022-12-20T16:57:17.544Z,33.70
2022-12-20T16:59:44.819Z,32.42
2022-12-20T17:02:28.886Z,28.55
2022-12-20T17:04:56.491Z,28.48
2022-12-20T17:07:23.754Z,29.73
2022-12-20T17:09:51.574Z,30.27
2022-12-20T17:12:21.955Z,31.65
2022-12-20T17:14:49.707Z,33.10
2022-12-20T17:17:18.191Z,31.58
2022-12-20T17:19:45.656Z,26.85
2022-12-20T17:25:02.861Z,31.67
2022-12-20T17:27:29.985Z,31.95
2022-12-20T17:29:56.998Z,31.40
2022-12-20T17:32:25.592Z,32.70
2022-12-20T17:34:53.375Z,34.22
2022-12-20T17:37:21.560Z,30.00
2022-12-20T17:39:49.565Z,32.97
2022-12-20T17:42:16.936Z,31.83
2022-12-20T17:44:46.908Z,28.70
2022-12-20T17:47:14.173Z,30.85
2022-12-20T17:49:41.137Z,30.40
2022-12-20T17:52:16.179Z,35.28
2022-12-20T17:54:43.439Z,31.80
2022-12-20T17:57:15.508Z,31.48
2022-12-20T17:59:43.737Z,32.55
2022-12-20T18:02:23.374Z,30.27
2022-12-20T18:04:51.367Z,34.30
2022-12-20T18:07:18.546Z,33.15
2022-12-20T18:09:48.209Z,31.65
2022-12-20T18:12:15.192Z,30.90
2022-12-20T18:14:42.565Z,29.83
2022-12-20T18:17:09.558Z,30.60
2022-12-20T18:19:36.896Z,29.45
2022-12-20T18:22:05.143Z,30.60
2022-12-20T18:24:32.204Z,34.63
2022-12-20T18:26:59.478Z,32.95
2022-12-20T18:29:26.319Z,32.58
2022-12-20T18:31:53.337Z,30.20
2022-12-20T18:34:20.520Z,34.00
2022-12-20T18:36:47.391Z,32.60
2022-12-20T18:39:14.889Z,35.40
2022-12-20T18:41:43.787Z,33.63
2022-12-20T18:44:12.085Z,31.63
2022-12-20T18:46:39.447Z,32.60
2022-12-20T18:49:06.567Z,33.33
2022-12-20T18:51:37.002Z,32.50
2022-12-20T18:54:07.126Z,34.17
2022-12-20T18:56:37.953Z,27.80
2022-12-20T18:59:11.342Z,33.22
2022-12-20T19:01:39.929Z,30.67
2022-12-20T19:04:08.051Z,31.60
2022-12-20T19:06:36.943Z,29.58
2022-12-20T19:09:08.162Z,32.78
2022-12-20T19:11:35.531Z,30.38
2022-12-20T19:14:03.753Z,30.98
2022-12-20T19:16:32.912Z,26.50
2022-12-20T19:19:02.500Z,28.98
2022-12-20T19:21:33.233Z,25.35
2022-12-20T19:24:05.210Z,28.60
2022-12-20T19:26:33.014Z,27.38
2022-12-20T19:29:00.376Z,27.45
2022-12-20T19:31:33.391Z,26.67
2022-12-20T19:34:06.049Z,28.45
2022-12-20T19:36:42.021Z,25.52
2022-12-20T19:39:16.020Z,27.88
2022-12-20T19:41:43.413Z,26.50
2022-12-20T19:44:10.672Z,30.15
2022-12-20T19:46:38.590Z,28.42
2022-12-20T19:49:05.927Z,26.63
2022-12-20T19:51:33.773Z,27.33
2022-12-20T19:54:01.023Z,26.60
2022-12-20T19:56:33.646Z,28.65
2022-12-20T19:59:02.343Z,27.60
2022-12-20T20:01:29.718Z,28.45
2022-12-20T20:04:00.107Z,30.27
2022-12-20T20:06:28.050Z,29.67
2022-12-20T20:08:59.607Z,26.20
2022-12-20T20:11:27.798Z,25.20
2022-12-20T20:13:55.723Z,24.20
2022-12-20T20:16:23.298Z,27.42
2022-12-20T20:18:51.099Z,26.65
2022-12-20T20:21:23.159Z,32.03
2022-12-20T20:23:52.626Z,26.70
2022-12-20T20:26:26.588Z,24.45
2022-12-20T20:28:54.092Z,28.45
2022-12-20T20:31:22.384Z,28.38
2022-12-20T20:33:50.561Z,27.85
2022-12-20T20:36:21.622Z,36.05
2022-12-20T20:38:50.313Z,28.05
2022-12-20T20:41:18.112Z,30.35
2022-12-20T20:43:45.237Z,25.80
2022-12-20T20:46:15.273Z,29.80
2022-12-20T20:48:43.125Z,28.27
2022-12-20T20:51:11.173Z,31.08
2022-12-20T20:53:38.314Z,26.38
2022-12-20T20:56:06.977Z,26.30
2022-12-20T20:58:35.379Z,24.55
2022-12-20T21:01:04.691Z,24.45
2022-12-20T21:03:32.547Z,29.75
2022-12-20T21:08:47.141Z,27.13
2022-12-20T21:11:14.374Z,28.52
2022-12-20T21:13:41.614Z,28.30
2022-12-20T21:16:20.261Z,27.38
2022-12-20T21:18:56.914Z,23.38
2022-12-20T21:21:25.595Z,27.77
2022-12-20T21:23:53.966Z,29.40
2022-12-20T21:26:22.894Z,27.58
2022-12-20T21:28:49.834Z,28.23
2022-12-20T21:31:19.514Z,26.35
2022-12-20T21:33:47.269Z,26.83
2022-12-20T21:36:17.734Z,27.00
2022-12-20T21:38:50.510Z,27.48
2022-12-20T21:41:20.152Z,28.88
2022-12-20T21:43:47.191Z,28.63
2022-12-20T21:46:14.709Z,25.33
2022-12-20T21:48:43.817Z,29.05
2022-12-20T21:51:14.637Z,27.65
2022-12-20T21:53:54.334Z,30.60
2022-12-20T21:56:23.527Z,27.27
2022-12-20T21:58:51.601Z,31.00
2022-12-20T22:01:24.462Z,29.25
2022-12-20T22:04:00.206Z,29.88
2022-12-20T22:06:28.145Z,29.40
2022-12-20T22:09:01.526Z,26.58
2022-12-20T22:11:28.694Z,27.85
2022-12-20T22:13:56.564Z,25.27
2022-12-20T22:16:26.923Z,25.65
2022-12-20T22:18:56.284Z,29.65
2022-12-20T22:21:32.219Z,24.98
2022-12-20T22:24:01.300Z,30.20
2022-12-20T22:26:31.412Z,27.70
2022-12-20T22:29:02.372Z,28.17
2022-12-20T22:31:30.497Z,23.85
2022-12-20T22:33:58.837Z,24.38
2022-12-20T22:36:28.654Z,26.48
2022-12-20T22:38:57.210Z,28.42
2022-12-20T22:41:35.043Z,28.27
2022-12-20T22:44:03.106Z,31.67
2022-12-20T22:46:31.058Z,27.92
2022-12-20T22:48:59.233Z,27.52
2022-12-20T22:51:27.860Z,25.30
2022-12-20T22:53:58.125Z,26.58
2022-12-20T22:56:25.641Z,25.35
2022-12-20T22:58:53.304Z,25.38
2022-12-20T23:01:21.700Z,25.20
2022-12-20T23:03:49.086Z,24.50
2022-12-20T23:06:19.425Z,26.60
2022-12-20T23:08:47.417Z,25.20
2022-12-20T23:11:43.474Z,27.67
2022-12-20T23:14:36.126Z,23.27
2022-12-20T23:17:04.941Z,25.52
2022-12-20T23:19:51.457Z,29.23
2022-12-20T23:22:37.804Z,28.67
2022-12-20T23:25:25.470Z,30.80
2022-12-20T23:27:53.944Z,30.35
2022-12-20T23:30:24.761Z,27.17
2022-12-20T23:32:53.600Z,30.95
2022-12-20T23:35:21.503Z,26.05
2022-12-20T23:37:48.894Z,27.02
2022-12-20T23:40:17.421Z,28.02
2022-12-20T23:42:44.671Z,26.70
2022-12-20T23:45:11.960Z,27.98
2022-12-20T23:47:38.925Z,28.67
2022-12-20T23:50:06.720Z,30.23
2022-12-20T23:52:34.079Z,31.95
2022-12-20T23:55:01.002Z,30.65
2022-12-20T23:57:31.240Z,31.40
2022-12-20T23:59:58.627Z,35.90
